createdAt,value
2023-08-04T00:01:39.702Z,71.12
2023-08-04T00:04:06.750Z,70.55
2023-08-04T00:06:33.946Z,70.36
2023-08-04T00:09:01.014Z,70.40
2023-08-04T00:11:33.856Z,70.26
2023-08-04T00:14:01.589Z,70.40
2023-08-04T00:16:29.627Z,70.44
2023-08-04T00:18:56.963Z,70.36
2023-08-04T00:21:24.330Z,70.51
2023-08-04T00:23:57.602Z,70.70
2023-08-04T00:26:26.924Z,70.78
2023-08-04T00:28:55.293Z,70.67
2023-08-04T00:31:24.851Z,70.74
2023-08-04T00:33:51.459Z,70.91
2023-08-04T00:36:18.881Z,71.02
2023-08-04T00:38:46.925Z,71.35
2023-08-04T00:41:14.009Z,70.98
2023-08-04T00:46:07.987Z,71.06
2023-08-04T00:48:35.113Z,71.94
2023-08-04T00:51:02.777Z,73.23
2023-08-04T00:53:31.230Z,73.12
2023-08-04T00:55:57.928Z,73.46
2023-08-04T00:58:24.637Z,72.86
2023-08-04T01:00:51.735Z,72.43
2023-08-04T01:03:25.920Z,71.97
2023-08-04T01:06:26.278Z,74.27
2023-08-04T01:09:20.904Z,72.35
2023-08-04T01:11:56.902Z,72.02
2023-08-04T01:14:26.378Z,73.79
2023-08-04T01:16:53.315Z,72.97
2023-08-04T01:19:20.784Z,73.47
2023-08-04T01:21:47.682Z,73.77
2023-08-04T01:24:14.962Z,74.32
2023-08-04T01:26:47.883Z,73.48
2023-08-04T01:29:15.640Z,73.08
2023-08-04T01:31:43.363Z,73.00
2023-08-04T01:34:15.253Z,73.04
2023-08-04T01:36:44.687Z,73.85
2023-08-04T01:39:14.649Z,73.42
2023-08-04T01:41:43.655Z,73.66
2023-08-04T01:44:10.176Z,73.24
2023-08-04T01:46:37.314Z,73.59
2023-08-04T01:49:03.939Z,73.27
2023-08-04T01:53:55.689Z,73.32
2023-08-04T01:56:27.998Z,73.09
2023-08-04T01:58:54.720Z,73.43
2023-08-04T02:01:21.942Z,73.22
2023-08-04T02:03:49.940Z,73.51
2023-08-04T02:06:16.487Z,73.53
2023-08-04T02:08:43.592Z,73.62
2023-08-04T02:11:10.151Z,73.99
2023-08-04T02:13:42.633Z,73.98
2023-08-04T02:16:09.254Z,74.34
2023-08-04T02:18:36.509Z,74.03
2023-08-04T02:21:04.034Z,74.49
2023-08-04T02:23:32.012Z,73.86
2023-08-04T02:25:59.361Z,74.08
2023-08-04T02:28:27.190Z,73.96
2023-08-04T02:30:53.814Z,74.27
2023-08-04T02:33:20.841Z,75.79
2023-08-04T02:35:47.435Z,76.54
2023-08-04T02:38:14.511Z,77.15
2023-08-04T02:40:42.030Z,78.63
2023-08-04T02:43:08.988Z,80.54
2023-08-04T02:45:35.615Z,79.85
2023-08-04T02:48:02.240Z,78.23
2023-08-04T02:52:59.498Z,76.57
2023-08-04T02:55:26.431Z,76.34
2023-08-04T02:57:53.548Z,76.08
2023-08-04T03:00:26.332Z,76.02
2023-08-04T03:02:57.766Z,75.93
2023-08-04T03:05:24.663Z,75.53
2023-08-04T03:07:51.446Z,75.69
2023-08-04T03:10:24.081Z,75.57
2023-08-04T03:12:50.767Z,75.86
2023-08-04T03:15:17.650Z,75.56
2023-08-04T03:17:44.254Z,76.22
2023-08-04T03:20:12.081Z,75.95
2023-08-04T03:22:39.461Z,76.26
2023-08-04T03:25:07.328Z,76.18
2023-08-04T03:27:33.899Z,76.57
2023-08-04T03:30:00.475Z,76.49
2023-08-04T03:32:27.510Z,76.36
2023-08-04T03:34:54.208Z,76.33
2023-08-04T03:37:20.881Z,76.28
2023-08-04T03:39:53.602Z,76.47
2023-08-04T03:42:20.671Z,76.34
2023-08-04T03:44:47.265Z,76.41
2023-08-04T03:47:14.433Z,76.58
2023-08-04T03:49:41.914Z,76.14
2023-08-04T03:54:33.700Z,76.38
2023-08-04T03:57:01.704Z,76.30
2023-08-04T03:59:28.615Z,76.50
2023-08-04T04:01:55.322Z,76.41
2023-08-04T04:04:22.032Z,76.89
2023-08-04T04:06:49.386Z,76.12
2023-08-04T04:09:16.426Z,76.14
2023-08-04T04:11:44.487Z,76.29
2023-08-04T04:14:12.465Z,75.27
2023-08-04T04:16:40.788Z,72.71
2023-08-04T04:19:08.818Z,69.99
2023-08-04T04:21:35.880Z,68.78
2023-08-04T04:24:05.625Z,66.50
2023-08-04T04:26:35.039Z,64.88
2023-08-04T04:29:04.517Z,63.46
2023-08-04T04:31:32.362Z,62.13
2023-08-04T04:33:59.440Z,61.53
2023-08-04T04:36:26.322Z,60.63
2023-08-04T04:38:53.124Z,59.69
2023-08-04T04:41:21.371Z,58.22
2023-08-04T04:43:54.293Z,57.63
2023-08-04T04:46:23.871Z,57.67
2023-08-04T04:48:51.468Z,56.95
2023-08-04T04:51:20.876Z,57.26
2023-08-04T04:53:50.518Z,57.15
2023-08-04T04:58:43.516Z,57.42
2023-08-04T05:01:10.231Z,56.86
2023-08-04T05:03:38.564Z,56.85
2023-08-04T05:06:05.910Z,56.62
2023-08-04T05:08:32.529Z,56.01
2023-08-04T05:10:59.703Z,54.76
2023-08-04T05:13:26.821Z,55.84
2023-08-04T05:15:53.784Z,56.67
2023-08-04T05:18:21.645Z,56.60
2023-08-04T05:20:53.527Z,55.72
2023-08-04T05:23:20.713Z,56.87
2023-08-04T05:25:48.064Z,57.15
2023-08-04T05:28:46.655Z,56.63
2023-08-04T05:31:13.775Z,56.98
2023-08-04T05:33:41.785Z,56.32
2023-08-04T05:36:10.062Z,55.37
2023-08-04T05:38:36.740Z,55.71
2023-08-04T05:41:04.684Z,53.91
2023-08-04T05:43:32.324Z,53.10
2023-08-04T05:46:03.223Z,53.30
2023-08-04T05:48:31.897Z,53.28
2023-08-04T05:50:59.226Z,52.85
2023-08-04T05:53:33.199Z,52.07
2023-08-04T05:56:00.247Z,52.94
2023-08-04T06:00:52.601Z,51.90
2023-08-04T06:03:19.785Z,52.27
2023-08-04T06:05:49.246Z,51.67
2023-08-04T06:08:17.103Z,51.86
2023-08-04T06:10:44.077Z,51.64
2023-08-04T06:13:11.151Z,51.68
2023-08-04T06:15:38.170Z,52.01
2023-08-04T06:18:05.266Z,51.33
2023-08-04T06:20:33.989Z,51.10
2023-08-04T06:23:03.614Z,50.36
2023-08-04T06:25:30.685Z,50.33
2023-08-04T06:27:58.373Z,51.14
2023-08-04T06:30:25.262Z,49.68
2023-08-04T06:32:52.754Z,51.33
2023-08-04T06:35:20.795Z,51.05
2023-08-04T06:37:47.920Z,50.00
2023-08-04T06:40:15.090Z,50.13
2023-08-04T06:42:44.425Z,50.11
2023-08-04T06:45:11.764Z,50.21
2023-08-04T06:47:38.934Z,49.81
2023-08-04T06:50:07.364Z,49.81
2023-08-04T06:52:35.288Z,48.99
2023-08-04T06:57:52.441Z,50.18
2023-08-04T07:00:19.051Z,52.35
2023-08-04T07:02:49.935Z,52.96
2023-08-04T07:05:17.628Z,53.45
2023-08-04T07:07:50.253Z,53.30
2023-08-04T07:10:18.064Z,52.60
2023-08-04T07:12:45.197Z,50.49
2023-08-04T07:15:12.970Z,49.38
2023-08-04T07:17:40.049Z,49.00
2023-08-04T07:20:08.614Z,49.95
2023-08-04T07:22:41.251Z,50.14
2023-08-04T07:25:09.617Z,48.20
2023-08-04T07:27:36.677Z,47.40
2023-08-04T07:30:03.498Z,46.49
2023-08-04T07:32:30.074Z,44.21
2023-08-04T07:35:02.843Z,45.14
2023-08-04T07:37:49.331Z,44.34
2023-08-04T07:40:16.725Z,43.15
2023-08-04T07:42:46.408Z,43.53
2023-08-04T07:45:13.618Z,42.41
2023-08-04T07:47:43.298Z,42.62
2023-08-04T07:50:11.000Z,42.79
2023-08-04T07:52:38.037Z,44.14
2023-08-04T07:57:33.080Z,46.35
2023-08-04T08:00:00.191Z,46.50
2023-08-04T08:02:27.376Z,45.33
2023-08-04T08:04:54.349Z,43.69
2023-08-04T08:07:28.757Z,41.49
2023-08-04T08:10:03.111Z,43.97
2023-08-04T08:12:30.242Z,43.96
2023-08-04T08:14:57.300Z,43.12
2023-08-04T08:17:24.515Z,41.64
2023-08-04T08:19:52.553Z,41.08
2023-08-04T08:22:24.401Z,40.13
2023-08-04T08:24:57.873Z,40.04
2023-08-04T08:27:25.199Z,39.68
2023-08-04T08:29:55.013Z,40.96
2023-08-04T08:32:22.231Z,39.61
2023-08-04T08:34:49.866Z,38.90
2023-08-04T08:37:17.085Z,39.93
2023-08-04T08:39:44.685Z,39.96
2023-08-04T08:42:12.003Z,39.06
2023-08-04T08:44:39.155Z,38.71
2023-08-04T08:47:07.083Z,38.99
2023-08-04T08:49:41.885Z,38.00
2023-08-04T08:52:09.233Z,37.44
2023-08-04T08:54:37.251Z,36.70
2023-08-04T08:57:06.043Z,35.99
2023-08-04T08:59:33.993Z,38.19
2023-08-04T09:04:28.988Z,36.53
2023-08-04T09:06:57.234Z,35.77
2023-08-04T09:09:24.152Z,36.18
2023-08-04T09:11:52.439Z,35.44
2023-08-04T09:14:19.408Z,34.46
2023-08-04T09:16:49.109Z,35.89
2023-08-04T09:19:18.426Z,35.07
2023-08-04T09:21:45.903Z,34.72
2023-08-04T09:24:13.641Z,33.74
2023-08-04T09:26:45.748Z,35.22
2023-08-04T09:29:13.054Z,34.58
2023-08-04T09:31:48.967Z,34.30
2023-08-04T09:34:20.007Z,33.16
2023-08-04T09:36:49.351Z,33.41
2023-08-04T09:39:16.272Z,33.64
2023-08-04T09:41:48.897Z,33.57
2023-08-04T09:44:16.340Z,34.43
2023-08-04T09:46:54.051Z,32.78
2023-08-04T09:49:22.125Z,33.00
2023-08-04T09:51:49.502Z,32.57
2023-08-04T09:54:16.729Z,33.12
2023-08-04T09:56:44.245Z,33.25
2023-08-04T09:59:12.269Z,32.97
2023-08-04T10:01:41.315Z,32.66
2023-08-04T10:04:10.757Z,31.27
2023-08-04T10:06:41.074Z,30.69
2023-08-04T10:09:09.096Z,30.83
2023-08-04T10:14:01.594Z,31.78
2023-08-04T10:16:38.925Z,31.77
2023-08-04T10:19:08.694Z,31.74
2023-08-04T10:21:48.555Z,33.41
2023-08-04T10:24:15.909Z,34.12
2023-08-04T10:26:48.856Z,32.84
2023-08-04T10:29:19.779Z,31.67
2023-08-04T10:31:59.123Z,31.68
2023-08-04T10:34:31.514Z,31.32
2023-08-04T10:37:06.989Z,32.72
2023-08-04T10:39:49.448Z,33.42
2023-08-04T10:42:22.777Z,32.31
2023-08-04T10:44:57.371Z,30.77
2023-08-04T10:48:10.379Z,31.04
2023-08-04T10:50:42.700Z,30.43
2023-08-04T10:53:11.163Z,29.66
2023-08-04T10:55:50.290Z,28.34
2023-08-04T10:58:17.038Z,29.80
2023-08-04T11:00:49.599Z,30.44
2023-08-04T11:03:34.734Z,28.85
2023-08-04T11:06:07.628Z,29.39
2023-08-04T11:08:37.031Z,29.46
2023-08-04T11:11:03.930Z,29.67
2023-08-04T11:13:30.900Z,29.29
2023-08-04T11:16:02.675Z,28.54
2023-08-04T11:18:32.541Z,28.45
2023-08-04T11:21:09.539Z,29.42
2023-08-04T11:23:41.801Z,29.39
2023-08-04T11:26:11.894Z,27.59
2023-08-04T11:28:38.972Z,27.23
2023-08-04T11:31:06.746Z,27.11
2023-08-04T11:33:44.030Z,27.34
2023-08-04T11:36:15.441Z,27.09
2023-08-04T11:38:42.545Z,28.33
2023-08-04T11:41:12.665Z,27.65
2023-08-04T11:43:39.669Z,27.01
2023-08-04T11:46:09.346Z,27.39
2023-08-04T11:48:38.626Z,28.04
2023-08-04T11:51:08.609Z,28.17
2023-08-04T11:53:37.437Z,28.23
2023-08-04T11:56:05.299Z,27.92
2023-08-04T11:58:40.216Z,28.25
2023-08-04T12:01:24.762Z,28.67
2023-08-04T12:03:51.838Z,27.80
2023-08-04T12:06:22.618Z,28.56
2023-08-04T12:08:54.288Z,28.80
2023-08-04T12:11:23.832Z,28.01
2023-08-04T12:13:51.028Z,28.04
2023-08-04T12:16:23.209Z,28.17
2023-08-04T12:18:50.704Z,27.70
2023-08-04T12:21:22.421Z,28.21
2023-08-04T12:23:49.991Z,27.87
2023-08-04T12:26:17.577Z,27.85
2023-08-04T12:31:35.509Z,28.71
2023-08-04T12:34:03.484Z,28.51
2023-08-04T12:36:30.648Z,28.22
2023-08-04T12:38:57.890Z,27.42
2023-08-04T12:41:27.420Z,27.36
2023-08-04T12:43:54.348Z,26.86
2023-08-04T12:46:21.527Z,27.48
2023-08-04T12:49:08.016Z,27.12
2023-08-04T12:51:34.976Z,26.82
2023-08-04T12:54:01.638Z,27.72
2023-08-04T12:56:31.178Z,27.98
2023-08-04T12:58:58.619Z,27.54
2023-08-04T13:01:26.075Z,27.72
2023-08-04T13:03:53.752Z,28.42
2023-08-04T13:06:21.868Z,28.66
2023-08-04T13:08:48.928Z,27.83
2023-08-04T13:11:16.371Z,28.18
2023-08-04T13:13:43.098Z,28.58
2023-08-04T13:16:15.762Z,27.93
2023-08-04T13:18:43.420Z,27.67
2023-08-04T13:21:11.342Z,27.56
2023-08-04T13:23:38.870Z,27.66
2023-08-04T13:26:09.071Z,27.06
2023-08-04T13:28:36.315Z,28.00
2023-08-04T13:33:28.712Z,26.99
2023-08-04T13:36:00.736Z,28.01
2023-08-04T13:38:27.771Z,27.69
2023-08-04T13:40:56.138Z,28.00
2023-08-04T13:43:26.779Z,28.42
2023-08-04T13:45:59.269Z,28.09
2023-08-04T13:48:26.342Z,28.36
2023-08-04T13:51:00.951Z,28.84
2023-08-04T13:53:29.854Z,28.92
2023-08-04T13:55:56.869Z,29.51
2023-08-04T13:58:23.805Z,29.21
2023-08-04T14:01:04.567Z,28.16
2023-08-04T14:03:31.540Z,28.48
2023-08-04T14:06:02.968Z,28.62
2023-08-04T14:08:35.665Z,28.28
2023-08-04T14:11:02.402Z,28.45
2023-08-04T14:13:29.526Z,28.13
2023-08-04T14:15:56.638Z,28.78
2023-08-04T14:18:23.725Z,28.75
2023-08-04T14:20:50.784Z,29.18
2023-08-04T14:23:18.774Z,29.23
2023-08-04T14:25:46.795Z,28.99
2023-08-04T14:28:20.447Z,27.62
2023-08-04T14:30:50.228Z,28.11
2023-08-04T14:35:42.091Z,28.44
2023-08-04T14:38:09.740Z,29.13
2023-08-04T14:40:36.836Z,29.68
2023-08-04T14:43:04.023Z,29.91
2023-08-04T14:45:37.467Z,30.25
2023-08-04T14:48:05.148Z,30.29
2023-08-04T14:50:33.146Z,30.32
2023-08-04T14:53:00.609Z,30.63
2023-08-04T14:55:27.995Z,31.06
2023-08-04T14:57:54.917Z,30.34
2023-08-04T15:00:22.231Z,31.39
2023-08-04T15:02:54.030Z,30.94
2023-08-04T15:05:21.625Z,31.00
2023-08-04T15:07:48.768Z,30.60
2023-08-04T15:10:16.570Z,30.57
2023-08-04T15:12:44.138Z,30.05
2023-08-04T15:15:13.807Z,29.82
2023-08-04T15:17:40.935Z,30.73
2023-08-04T15:20:16.712Z,31.20
2023-08-04T15:22:46.201Z,31.43
2023-08-04T15:25:13.299Z,31.81
2023-08-04T15:30:35.241Z,32.29
2023-08-04T15:33:02.450Z,32.31
2023-08-04T15:35:29.742Z,32.89
2023-08-04T15:37:57.020Z,33.49
2023-08-04T15:40:26.357Z,33.42
2023-08-04T15:42:53.018Z,33.48
2023-08-04T15:45:20.629Z,33.25
2023-08-04T15:47:47.286Z,33.17
2023-08-04T15:50:16.860Z,34.04
2023-08-04T15:52:44.076Z,33.54
2023-08-04T15:55:13.393Z,33.51
2023-08-04T15:57:45.579Z,33.82
2023-08-04T16:00:15.555Z,33.25
2023-08-04T16:02:42.642Z,33.77
2023-08-04T16:05:10.853Z,34.22
2023-08-04T16:07:37.749Z,34.86
2023-08-04T16:10:05.485Z,34.32
2023-08-04T16:12:33.378Z,34.89
2023-08-04T16:15:01.137Z,34.92
2023-08-04T16:17:28.241Z,34.56
2023-08-04T16:19:55.350Z,34.64
2023-08-04T16:22:22.438Z,34.60
2023-08-04T16:24:49.478Z,34.47
2023-08-04T16:29:42.624Z,33.76
2023-08-04T16:32:10.593Z,33.99
2023-08-04T16:34:37.733Z,34.05
2023-08-04T16:37:05.399Z,34.24
2023-08-04T16:39:37.851Z,34.12
2023-08-04T16:42:04.771Z,34.40
2023-08-04T16:44:31.805Z,34.14
2023-08-04T16:47:01.445Z,34.31
2023-08-04T16:49:28.728Z,34.26
2023-08-04T16:51:55.734Z,34.39
2023-08-04T16:54:23.192Z,34.49
2023-08-04T16:56:50.492Z,34.98
2023-08-04T16:59:18.368Z,35.20
2023-08-04T17:01:46.145Z,35.27
2023-08-04T17:04:13.256Z,35.71
2023-08-04T17:06:41.155Z,35.25
2023-08-04T17:09:12.658Z,35.43
2023-08-04T17:11:42.183Z,35.72
2023-08-04T17:14:09.230Z,36.15
2023-08-04T17:16:36.872Z,36.40
2023-08-04T17:19:03.919Z,37.00
2023-08-04T17:21:30.480Z,36.91
2023-08-04T17:23:56.998Z,37.27
2023-08-04T17:26:24.455Z,37.68
2023-08-04T17:28:51.014Z,38.56
2023-08-04T17:31:18.857Z,38.34
2023-08-04T17:33:45.690Z,38.66
2023-08-04T17:38:42.649Z,38.72
2023-08-04T17:41:14.573Z,39.19
2023-08-04T17:43:43.381Z,38.92
2023-08-04T17:46:10.522Z,39.45
2023-08-04T17:48:39.279Z,40.13
2023-08-04T17:51:11.834Z,39.84
2023-08-04T17:53:38.789Z,40.14
2023-08-04T17:56:07.486Z,40.18
2023-08-04T17:58:34.253Z,41.11
2023-08-04T18:01:02.568Z,41.10
2023-08-04T18:03:30.151Z,41.00
2023-08-04T18:06:02.012Z,41.78
2023-08-04T18:08:29.545Z,42.34
2023-08-04T18:10:56.701Z,43.61
2023-08-04T18:13:23.266Z,43.97
2023-08-04T18:15:54.777Z,44.27
2023-08-04T18:18:22.158Z,44.60
2023-08-04T18:20:49.162Z,45.06
2023-08-04T18:23:17.443Z,44.96
2023-08-04T18:25:44.632Z,45.03
2023-08-04T18:28:11.703Z,45.31
2023-08-04T18:30:43.133Z,45.67
2023-08-04T18:33:11.043Z,45.79
2023-08-04T18:35:46.541Z,45.90
2023-08-04T18:38:13.293Z,46.41
2023-08-04T18:40:40.041Z,46.66
2023-08-04T18:43:07.641Z,46.93
2023-08-04T18:47:59.368Z,47.23
2023-08-04T18:50:26.527Z,47.43
2023-08-04T18:52:53.167Z,47.93
2023-08-04T18:55:21.033Z,48.18
2023-08-04T18:57:53.776Z,48.79
2023-08-04T19:00:22.419Z,48.85
2023-08-04T19:02:49.036Z,48.97
2023-08-04T19:05:17.741Z,49.27
2023-08-04T19:07:44.812Z,49.68
2023-08-04T19:10:11.705Z,49.98
2023-08-04T19:12:38.282Z,50.14
2023-08-04T19:15:06.547Z,49.81
2023-08-04T19:17:33.669Z,50.33
2023-08-04T19:20:07.059Z,49.98
2023-08-04T19:22:33.938Z,50.22
2023-08-04T19:25:00.702Z,50.20
2023-08-04T19:27:27.845Z,50.38
2023-08-04T19:29:55.777Z,50.62
2023-08-04T19:32:22.845Z,51.28
2023-08-04T19:34:49.510Z,51.13
2023-08-04T19:37:17.521Z,51.86
2023-08-04T19:39:44.103Z,51.72
2023-08-04T19:42:11.949Z,51.90
2023-08-04T19:44:38.642Z,51.92
2023-08-04T19:47:07.879Z,51.97
2023-08-04T19:52:28.556Z,51.87
2023-08-04T19:54:55.968Z,51.86
2023-08-04T19:57:23.005Z,52.67
2023-08-04T19:59:50.154Z,52.27
2023-08-04T20:02:17.700Z,52.71
2023-08-04T20:04:44.286Z,53.13
2023-08-04T20:07:11.697Z,53.38
2023-08-04T20:09:38.710Z,53.89
2023-08-04T20:12:08.696Z,54.54
2023-08-04T20:14:35.353Z,54.04
2023-08-04T20:17:02.706Z,53.92
2023-08-04T20:19:29.573Z,54.76
2023-08-04T20:21:56.174Z,54.45
2023-08-04T20:24:23.047Z,53.97
2023-08-04T20:26:50.606Z,54.25
2023-08-04T20:29:17.958Z,54.40
2023-08-04T20:31:45.059Z,54.92
2023-08-04T20:34:12.188Z,54.76
2023-08-04T20:36:39.275Z,54.63
2023-08-04T20:39:08.879Z,55.23
2023-08-04T20:41:35.986Z,56.31
2023-08-04T20:44:05.455Z,56.18
2023-08-04T20:46:32.487Z,55.63
2023-08-04T20:48:59.412Z,57.23
2023-08-04T20:51:26.566Z,59.07
2023-08-04T20:53:54.581Z,59.97
2023-08-04T20:56:21.781Z,60.85
2023-08-04T20:58:49.907Z,61.56
2023-08-04T21:01:16.941Z,61.42
2023-08-04T21:03:47.477Z,61.37
2023-08-04T21:06:14.594Z,61.92
2023-08-04T21:08:41.689Z,63.13
2023-08-04T21:11:08.743Z,61.84
2023-08-04T21:13:36.753Z,62.49
2023-08-04T21:16:05.440Z,63.24
2023-08-04T21:18:33.870Z,63.42
2023-08-04T21:21:00.962Z,63.81
2023-08-04T21:23:28.175Z,63.67
2023-08-04T21:25:55.052Z,62.05
2023-08-04T21:28:23.215Z,62.42
2023-08-04T21:30:54.611Z,61.34
2023-08-04T21:33:22.673Z,61.03
2023-08-04T21:36:05.472Z,60.79
2023-08-04T21:38:32.898Z,60.48
2023-08-04T21:41:04.335Z,60.18
2023-08-04T21:43:31.890Z,60.63
2023-08-04T21:46:08.579Z,60.69
2023-08-04T21:48:35.771Z,62.06
2023-08-04T21:51:12.978Z,61.44
2023-08-04T21:53:40.767Z,61.38
2023-08-04T21:56:08.512Z,61.39
2023-08-04T22:01:08.132Z,61.79
2023-08-04T22:03:39.879Z,61.81
2023-08-04T22:06:08.800Z,62.29
2023-08-04T22:08:35.900Z,63.88
2023-08-04T22:11:09.907Z,65.86
2023-08-04T22:13:40.975Z,67.50
2023-08-04T22:16:11.270Z,67.03
2023-08-04T22:18:38.222Z,66.30
2023-08-04T22:21:11.242Z,64.85
2023-08-04T22:23:40.789Z,64.34
2023-08-04T22:26:08.395Z,64.00
2023-08-04T22:28:37.712Z,63.57
2023-08-04T22:31:05.231Z,64.11
2023-08-04T22:33:33.097Z,63.30
2023-08-04T22:35:59.876Z,63.46
2023-08-04T22:38:26.634Z,63.81
2023-08-04T22:40:57.041Z,64.20
2023-08-04T22:43:31.043Z,64.40
2023-08-04T22:45:58.184Z,64.55
2023-08-04T22:48:30.477Z,65.54
2023-08-04T22:51:11.014Z,68.07
2023-08-04T22:53:40.833Z,67.22
2023-08-04T22:58:47.771Z,70.45
2023-08-04T23:01:14.294Z,68.57
2023-08-04T23:03:41.289Z,67.29
2023-08-04T23:09:09.147Z,66.50
2023-08-04T23:11:35.718Z,66.31
2023-08-04T23:14:02.726Z,66.34
2023-08-04T23:16:29.853Z,66.76
2023-08-04T23:18:57.921Z,68.30
2023-08-04T23:21:25.019Z,68.96
2023-08-04T23:23:52.472Z,69.63
2023-08-04T23:26:20.147Z,68.14
2023-08-04T23:28:47.266Z,67.86
2023-08-04T23:31:14.303Z,68.48
2023-08-04T23:33:40.928Z,68.51
2023-08-04T23:36:08.024Z,68.25
2023-08-04T23:38:37.310Z,67.61
2023-08-04T23:41:12.619Z,67.68
2023-08-04T23:43:45.206Z,68.78
2023-08-04T23:46:12.823Z,67.74
2023-08-04T23:48:39.993Z,68.59
2023-08-04T23:51:08.212Z,68.26
2023-08-04T23:53:39.894Z,68.67
2023-08-04T23:56:06.467Z,70.35
2023-08-04T23:58:34.667Z,69.89
